sensor_id;sensor_type;location;lat;lon;timestamp;pressure;altitude;pressure_sealevel;temperature;humidity
37298;BME280;30517;51.932;4.278;2022-07-05T00:01:59;102127.94;;;21.51;46.12
37298;BME280;30517;51.932;4.278;2022-07-05T00:04:40;102001.34;;;20.68;46.02
37298;BME280;30517;51.932;4.278;2022-07-05T00:07:21;102220.06;;;21.87;46.33
37298;BME280;30517;51.932;4.278;2022-07-05T00:10:03;102181.03;;;21.74;46.26
37298;BME280;30517;51.932;4.278;2022-07-05T00:12:44;102001.13;;;20.77;45.95
37298;BME280;30517;51.932;4.278;2022-07-05T00:15:25;102092.63;;;21.34;45.94
37298;BME280;30517;51.932;4.278;2022-07-05T00:18:06;102190.72;;;21.80;46.21
37298;BME280;30517;51.932;4.278;2022-07-05T00:20:47;102115.69;;;21.41;46.38
37298;BME280;30517;51.932;4.278;2022-07-05T00:23:28;102137.84;;;21.49;45.99
37298;BME280;30517;51.932;4.278;2022-07-05T00:26:09;102019.13;;;20.72;46.14
37298;BME280;30517;51.932;4.278;2022-07-05T00:28:50;102059.69;;;20.94;46.28
37298;BME280;30517;51.932;4.278;2022-07-05T00:31:31;102193.72;;;21.68;46.34
37298;BME280;30517;51.932;4.278;2022-07-05T00:34:12;101800.97;;;19.39;46.17
37298;BME280;30517;51.932;4.278;2022-07-05T00:36:53;102123.97;;;20.97;46.36
37298;BME280;30517;51.932;4.278;2022-07-05T00:39:34;102015.03;;;20.58;46.17
37298;BME280;30517;51.932;4.278;2022-07-05T00:42:15;102196.09;;;21.47;45.91
37298;BME280;30517;51.932;4.278;2022-07-05T00:44:56;102177.06;;;21.55;46.40
37298;BME280;30517;51.932;4.278;2022-07-05T00:47:37;102169.09;;;21.16;46.52
37298;BME280;30517;51.932;4.278;2022-07-05T00:50:18;101933.31;;;20.04;46.35
37298;BME280;30517;51.932;4.278;2022-07-05T00:52:59;102178.09;;;21.49;46.46
37298;BME280;30517;51.932;4.278;2022-07-05T00:55:40;101928.16;;;19.95;46.29
37298;BME280;30517;51.932;4.278;2022-07-05T00:58:22;102141.22;;;21.21;46.70
37298;BME280;30517;51.932;4.278;2022-07-05T01:01:05;101976.53;;;20.24;46.26
37298;BME280;30517;51.932;4.278;2022-07-05T01:03:47;101928.16;;;19.95;46.50
37298;BME280;30517;51.932;4.278;2022-07-05T01:06:28;102176.63;;;21.36;46.47
37298;BME280;30517;51.932;4.278;2022-07-05T01:09:12;101961.84;;;20.05;46.51
37298;BME280;30517;51.932;4.278;2022-07-05T01:11:53;102081.66;;;20.74;46.52
37298;BME280;30517;51.932;4.278;2022-07-05T01:14:34;102095.97;;;20.73;46.65
37298;BME280;30517;51.932;4.278;2022-07-05T01:17:16;102193.06;;;21.24;46.63
37298;BME280;30517;51.932;4.278;2022-07-05T01:19:57;102191.31;;;21.23;46.78
37298;BME280;30517;51.932;4.278;2022-07-05T01:22:52;102193.22;;;21.17;46.57
37298;BME280;30517;51.932;4.278;2022-07-05T01:25:33;102125.38;;;20.38;46.56
37298;BME280;30517;51.932;4.278;2022-07-05T01:28:15;102165.97;;;20.98;46.73
37298;BME280;30517;51.932;4.278;2022-07-05T01:30:56;101978.44;;;19.82;46.53
37298;BME280;30517;51.932;4.278;2022-07-05T01:33:37;101866.53;;;19.20;46.52
37298;BME280;30517;51.932;4.278;2022-07-05T01:36:18;101950.41;;;19.58;46.48
37298;BME280;30517;51.932;4.278;2022-07-05T01:39:00;101922.25;;;19.40;46.76
37298;BME280;30517;51.932;4.278;2022-07-05T01:41:41;102226.91;;;20.92;47.03
37298;BME280;30517;51.932;4.278;2022-07-05T01:44:22;101867.94;;;18.94;46.76
37298;BME280;30517;51.932;4.278;2022-07-05T01:47:05;102181.47;;;20.86;47.45
37298;BME280;30517;51.932;4.278;2022-07-05T01:49:48;102050.16;;;20.08;46.86
37298;BME280;30517;51.932;4.278;2022-07-05T01:52:31;102211.06;;;20.83;46.86
37298;BME280;30517;51.932;4.278;2022-07-05T01:55:12;101874.00;;;19.04;46.58
37298;BME280;30517;51.932;4.278;2022-07-05T01:57:53;101945.19;;;19.08;47.11
37298;BME280;30517;51.932;4.278;2022-07-05T02:00:48;101856.91;;;18.66;46.81
37298;BME280;30517;51.932;4.278;2022-07-05T02:03:29;102188.13;;;20.69;47.20
37298;BME280;30517;51.932;4.278;2022-07-05T02:06:10;102126.53;;;20.26;47.00
37298;BME280;30517;51.932;4.278;2022-07-05T02:08:51;102074.84;;;19.80;46.81
37298;BME280;30517;51.932;4.278;2022-07-05T02:11:32;102191.06;;;20.57;46.90
37298;BME280;30517;51.932;4.278;2022-07-05T02:14:13;102180.06;;;20.29;47.15
37298;BME280;30517;51.932;4.278;2022-07-05T02:16:54;102140.34;;;20.06;47.29
37298;BME280;30517;51.932;4.278;2022-07-05T02:19:37;101975.06;;;19.30;47.42
37298;BME280;30517;51.932;4.278;2022-07-05T02:22:19;101962.09;;;19.10;46.94
37298;BME280;30517;51.932;4.278;2022-07-05T02:24:59;102059.06;;;19.65;47.14
37298;BME280;30517;51.932;4.278;2022-07-05T02:27:40;101953.63;;;18.88;47.24
37298;BME280;30517;51.932;4.278;2022-07-05T02:30:21;102204.91;;;20.36;47.36
37298;BME280;30517;51.932;4.278;2022-07-05T02:33:02;101913.69;;;18.79;47.38
37298;BME280;30517;51.932;4.278;2022-07-05T02:35:43;102068.78;;;19.72;47.16
37298;BME280;30517;51.932;4.278;2022-07-05T02:38:24;102179.97;;;20.33;46.99
37298;BME280;30517;51.932;4.278;2022-07-05T02:41:09;102137.81;;;20.00;47.34
37298;BME280;30517;51.932;4.278;2022-07-05T02:43:51;102125.50;;;19.91;47.22
37298;BME280;30517;51.932;4.278;2022-07-05T02:46:32;102190.06;;;20.19;47.41
37298;BME280;30517;51.932;4.278;2022-07-05T02:49:13;101920.19;;;18.64;47.09
37298;BME280;30517;51.932;4.278;2022-07-05T02:51:55;102198.22;;;20.15;47.21
37298;BME280;30517;51.932;4.278;2022-07-05T02:54:36;101965.25;;;18.84;47.28
37298;BME280;30517;51.932;4.278;2022-07-05T02:57:17;101826.19;;;17.92;47.34
37298;BME280;30517;51.932;4.278;2022-07-05T02:59:58;102035.06;;;19.17;47.24
37298;BME280;30517;51.932;4.278;2022-07-05T03:02:38;102181.53;;;20.02;47.29
37298;BME280;30517;51.932;4.278;2022-07-05T03:05:19;101859.03;;;17.99;47.51
37298;BME280;30517;51.932;4.278;2022-07-05T03:08:00;101896.19;;;18.11;47.02
37298;BME280;30517;51.932;4.278;2022-07-05T03:10:41;102119.03;;;19.55;47.44
37298;BME280;30517;51.932;4.278;2022-07-05T03:13:22;101941.91;;;18.44;47.38
37298;BME280;30517;51.932;4.278;2022-07-05T03:16:03;101939.19;;;18.47;47.32
37298;BME280;30517;51.932;4.278;2022-07-05T03:18:44;102091.94;;;19.28;47.61
37298;BME280;30517;51.932;4.278;2022-07-05T03:21:25;101854.72;;;17.90;47.45
37298;BME280;30517;51.932;4.278;2022-07-05T03:24:06;101900.50;;;18.20;47.65
37298;BME280;30517;51.932;4.278;2022-07-05T03:26:47;102194.31;;;19.87;47.49
37298;BME280;30517;51.932;4.278;2022-07-05T03:29:27;101883.00;;;18.01;47.89
37298;BME280;30517;51.932;4.278;2022-07-05T03:32:08;102204.25;;;19.79;47.72
37298;BME280;30517;51.932;4.278;2022-07-05T03:34:49;102194.59;;;19.72;47.94
37298;BME280;30517;51.932;4.278;2022-07-05T03:37:30;102064.97;;;18.89;47.21
37298;BME280;30517;51.932;4.278;2022-07-05T03:40:11;101898.38;;;17.88;47.92
37298;BME280;30517;51.932;4.278;2022-07-05T03:42:52;101875.34;;;17.81;47.75
37298;BME280;30517;51.932;4.278;2022-07-05T03:45:32;101874.47;;;17.80;47.55
37298;BME280;30517;51.932;4.278;2022-07-05T03:48:13;102111.88;;;19.09;47.88
37298;BME280;30517;51.932;4.278;2022-07-05T03:50:54;102077.47;;;18.87;47.20
37298;BME280;30517;51.932;4.278;2022-07-05T03:53:35;102197.66;;;19.49;48.33
37298;BME280;30517;51.932;4.278;2022-07-05T03:56:16;102119.44;;;18.82;47.45
37298;BME280;30517;51.932;4.278;2022-07-05T03:58:59;102196.72;;;19.52;47.77
37298;BME280;30517;51.932;4.278;2022-07-05T04:01:40;102115.81;;;18.86;47.69
37298;BME280;30517;51.932;4.278;2022-07-05T04:04:21;102190.41;;;19.03;48.33
37298;BME280;30517;51.932;4.278;2022-07-05T04:07:02;102092.94;;;18.67;48.13
37298;BME280;30517;51.932;4.278;2022-07-05T04:09:43;102178.47;;;19.24;47.68
37298;BME280;30517;51.932;4.278;2022-07-05T04:12:24;102106.94;;;18.84;47.77
37298;BME280;30517;51.932;4.278;2022-07-05T04:15:06;102121.22;;;18.83;47.40
37298;BME280;30517;51.932;4.278;2022-07-05T04:17:47;102213.88;;;19.40;47.46
37298;BME280;30517;51.932;4.278;2022-07-05T04:20:29;102122.41;;;18.64;48.45
37298;BME280;30517;51.932;4.278;2022-07-05T04:23:10;102132.88;;;18.79;48.13
37298;BME280;30517;51.932;4.278;2022-07-05T04:25:50;102099.41;;;18.53;47.69
37298;BME280;30517;51.932;4.278;2022-07-05T04:28:31;102135.66;;;18.71;48.24
37298;BME280;30517;51.932;4.278;2022-07-05T04:31:12;102042.97;;;18.14;48.59
37298;BME280;30517;51.932;4.278;2022-07-05T04:33:53;102162.16;;;18.88;48.35
37298;BME280;30517;51.932;4.278;2022-07-05T04:36:34;102190.50;;;18.98;48.45
37298;BME280;30517;51.932;4.278;2022-07-05T04:39:17;102215.78;;;18.76;48.08
37298;BME280;30517;51.932;4.278;2022-07-05T04:42:00;102220.69;;;19.05;48.51
37298;BME280;30517;51.932;4.278;2022-07-05T04:44:41;102173.03;;;18.73;48.79
37298;BME280;30517;51.932;4.278;2022-07-05T04:47:22;102229.03;;;18.82;56.67
37298;BME280;30517;51.932;4.278;2022-07-05T04:50:04;102139.72;;;18.37;56.18
37298;BME280;30517;51.932;4.278;2022-07-05T04:52:45;102223.41;;;19.02;54.77
37298;BME280;30517;51.932;4.278;2022-07-05T04:55:26;102184.34;;;18.93;53.78
37298;BME280;30517;51.932;4.278;2022-07-05T04:58:07;102238.47;;;19.09;53.11
37298;BME280;30517;51.932;4.278;2022-07-05T05:00:47;102097.00;;;18.35;52.60
37298;BME280;30517;51.932;4.278;2022-07-05T05:03:28;102181.66;;;18.93;52.15
37298;BME280;30517;51.932;4.278;2022-07-05T05:06:09;102225.09;;;19.08;51.72
37298;BME280;30517;51.932;4.278;2022-07-05T05:08:50;102226.97;;;19.04;51.10
37298;BME280;30517;51.932;4.278;2022-07-05T05:11:31;102182.84;;;18.72;50.80
37298;BME280;30517;51.932;4.278;2022-07-05T05:14:12;102191.00;;;18.62;50.97
37298;BME280;30517;51.932;4.278;2022-07-05T05:16:53;102246.66;;;18.98;50.84
37298;BME280;30517;51.932;4.278;2022-07-05T05:19:33;102098.13;;;18.19;50.52
37298;BME280;30517;51.932;4.278;2022-07-05T05:22:14;102222.06;;;18.72;50.73
37298;BME280;30517;51.932;4.278;2022-07-05T05:24:55;102140.56;;;18.42;50.21
37298;BME280;30517;51.932;4.278;2022-07-05T05:27:44;102247.66;;;18.91;50.29
37298;BME280;30517;51.932;4.278;2022-07-05T05:30:25;102229.97;;;18.81;49.87
37298;BME280;30517;51.932;4.278;2022-07-05T05:33:05;102233.59;;;18.77;50.41
37298;BME280;30517;51.932;4.278;2022-07-05T05:35:46;102216.91;;;18.58;50.69
37298;BME280;30517;51.932;4.278;2022-07-05T05:38:27;102181.56;;;18.36;51.03
37298;BME280;30517;51.932;4.278;2022-07-05T05:41:08;102140.91;;;18.14;50.85
37298;BME280;30517;51.932;4.278;2022-07-05T05:43:49;102223.09;;;18.62;50.94
37298;BME280;30517;51.932;4.278;2022-07-05T05:46:30;102194.84;;;18.42;50.74
37298;BME280;30517;51.932;4.278;2022-07-05T05:49:11;102179.91;;;18.29;50.61
37298;BME280;30517;51.932;4.278;2022-07-05T05:51:51;101925.59;;;16.72;50.24
37298;BME280;30517;51.932;4.278;2022-07-05T05:54:32;102260.31;;;18.74;50.30
37298;BME280;30517;51.932;4.278;2022-07-05T05:57:13;102021.78;;;17.33;50.58
37298;BME280;30517;51.932;4.278;2022-07-05T05:59:54;102197.84;;;18.16;50.60
37298;BME280;30517;51.932;4.278;2022-07-05T06:02:35;102196.63;;;18.43;50.61
37298;BME280;30517;51.932;4.278;2022-07-05T06:05:17;102108.50;;;17.70;50.33
37298;BME280;30517;51.932;4.278;2022-07-05T06:07:58;102172.03;;;18.17;50.37
37298;BME280;30517;51.932;4.278;2022-07-05T06:10:39;101970.78;;;16.88;50.06
37298;BME280;30517;51.932;4.278;2022-07-05T06:13:20;102219.78;;;18.41;50.48
37298;BME280;30517;51.932;4.278;2022-07-05T06:16:01;102208.25;;;18.39;50.11
37298;BME280;30517;51.932;4.278;2022-07-05T06:18:41;102042.25;;;17.32;50.25
37298;BME280;30517;51.932;4.278;2022-07-05T06:21:22;102295.06;;;18.74;50.01
37298;BME280;30517;51.932;4.278;2022-07-05T06:24:03;102279.94;;;18.76;50.17
37298;BME280;30517;51.932;4.278;2022-07-05T06:26:44;102283.47;;;18.76;50.13
37298;BME280;30517;51.932;4.278;2022-07-05T06:29:25;102168.56;;;18.10;50.12
37298;BME280;30517;51.932;4.278;2022-07-05T06:32:06;102257.78;;;18.65;50.08
37298;BME280;30517;51.932;4.278;2022-07-05T06:34:47;102197.66;;;18.30;49.88
37298;BME280;30517;51.932;4.278;2022-07-05T06:37:40;102282.59;;;18.77;49.83
37298;BME280;30517;51.932;4.278;2022-07-05T06:43:09;102164.00;;;18.18;49.60
37298;BME280;30517;51.932;4.278;2022-07-05T06:45:50;102256.91;;;18.64;49.79
37298;BME280;30517;51.932;4.278;2022-07-05T06:48:31;102162.22;;;18.20;49.61
37298;BME280;30517;51.932;4.278;2022-07-05T06:51:12;102137.53;;;17.98;49.26
37298;BME280;30517;51.932;4.278;2022-07-05T06:53:53;102285.53;;;18.54;49.68
37298;BME280;30517;51.932;4.278;2022-07-05T06:56:34;102293.91;;;18.96;49.55
37298;BME280;30517;51.932;4.278;2022-07-05T06:59:14;102296.69;;;18.89;49.68
37298;BME280;30517;51.932;4.278;2022-07-05T07:01:55;102288.66;;;18.90;49.55
37298;BME280;30517;51.932;4.278;2022-07-05T07:04:36;102301.78;;;19.07;49.62
37298;BME280;30517;51.932;4.278;2022-07-05T07:07:17;102312.38;;;19.15;49.65
37298;BME280;30517;51.932;4.278;2022-07-05T07:10:16;102307.19;;;19.04;49.55
37298;BME280;30517;51.932;4.278;2022-07-05T07:12:58;102270.00;;;18.86;49.55
37298;BME280;30517;51.932;4.278;2022-07-05T07:15:39;102278.75;;;18.95;49.40
37298;BME280;30517;51.932;4.278;2022-07-05T07:18:21;102308.88;;;19.10;49.83
37298;BME280;30517;51.932;4.278;2022-07-05T07:21:01;102294.84;;;18.92;49.95
37298;BME280;30517;51.932;4.278;2022-07-05T07:23:42;102323.84;;;19.23;49.71
37298;BME280;30517;51.932;4.278;2022-07-05T07:26:23;102326.31;;;19.37;49.19
37298;BME280;30517;51.932;4.278;2022-07-05T07:29:04;102276.69;;;19.17;49.32
37298;BME280;30517;51.932;4.278;2022-07-05T07:31:45;102308.56;;;19.30;49.54
37298;BME280;30517;51.932;4.278;2022-07-05T07:34:27;102262.81;;;18.91;49.37
37298;BME280;30517;51.932;4.278;2022-07-05T07:37:08;102287.44;;;19.13;49.24
37298;BME280;30517;51.932;4.278;2022-07-05T07:39:53;102327.19;;;19.37;49.36
37298;BME280;30517;51.932;4.278;2022-07-05T07:42:34;102329.59;;;19.54;49.08
37298;BME280;30517;51.932;4.278;2022-07-05T07:45:15;102281.28;;;19.08;49.12
37298;BME280;30517;51.932;4.278;2022-07-05T07:47:56;102315.72;;;19.28;49.39
37298;BME280;30517;51.932;4.278;2022-07-05T07:50:37;102289.91;;;19.25;49.64
37298;BME280;30517;51.932;4.278;2022-07-05T07:53:17;102320.69;;;19.54;50.25
37298;BME280;30517;51.932;4.278;2022-07-05T07:55:58;102331.28;;;19.61;49.89
37298;BME280;30517;51.932;4.278;2022-07-05T07:58:39;102358.84;;;19.68;49.85
37298;BME280;30517;51.932;4.278;2022-07-05T08:01:20;102278.09;;;19.40;49.51
37298;BME280;30517;51.932;4.278;2022-07-05T08:04:01;102340.66;;;19.88;49.26
37298;BME280;30517;51.932;4.278;2022-07-05T08:06:43;102310.56;;;19.74;49.10
37298;BME280;30517;51.932;4.278;2022-07-05T08:09:24;102312.28;;;19.78;49.02
37298;BME280;30517;51.932;4.278;2022-07-05T08:12:05;102343.03;;;20.05;49.30
37298;BME280;30517;51.932;4.278;2022-07-05T08:14:47;102227.41;;;19.31;49.44
37298;BME280;30517;51.932;4.278;2022-07-05T08:17:27;102350.06;;;20.13;49.56
37298;BME280;30517;51.932;4.278;2022-07-05T08:20:09;102304.88;;;19.93;49.63
37298;BME280;30517;51.932;4.278;2022-07-05T08:23:09;102339.31;;;20.14;49.44
37298;BME280;30517;51.932;4.278;2022-07-05T08:25:49;102340.94;;;20.23;49.29
37298;BME280;30517;51.932;4.278;2022-07-05T08:28:30;102313.66;;;20.01;49.43
37298;BME280;30517;51.932;4.278;2022-07-05T08:31:11;102356.91;;;20.27;49.49
37298;BME280;30517;51.932;4.278;2022-07-05T08:33:52;102236.63;;;19.69;50.03
37298;BME280;30517;51.932;4.278;2022-07-05T08:36:33;102332.81;;;20.27;49.50
37298;BME280;30517;51.932;4.278;2022-07-05T08:39:14;102323.00;;;20.26;49.07
37298;BME280;30517;51.932;4.278;2022-07-05T08:41:56;102353.06;;;20.42;49.27
37298;BME280;30517;51.932;4.278;2022-07-05T08:44:39;102345.84;;;20.46;48.95
37298;BME280;30517;51.932;4.278;2022-07-05T08:47:22;102348.47;;;20.49;48.87
37298;BME280;30517;51.932;4.278;2022-07-05T08:50:04;102308.59;;;20.32;49.20
37298;BME280;30517;51.932;4.278;2022-07-05T08:52:45;102339.59;;;20.47;49.39
37298;BME280;30517;51.932;4.278;2022-07-05T08:55:26;102353.69;;;20.58;49.31
37298;BME280;30517;51.932;4.278;2022-07-05T08:58:07;102350.00;;;20.64;49.11
37298;BME280;30517;51.932;4.278;2022-07-05T09:00:49;102344.72;;;20.59;49.12
37298;BME280;30517;51.932;4.278;2022-07-05T09:06:22;102348.19;;;20.64;49.04
37298;BME280;30517;51.932;4.278;2022-07-05T09:09:05;102349.72;;;20.76;49.20
37298;BME280;30517;51.932;4.278;2022-07-05T09:11:46;102349.84;;;20.71;49.31
37298;BME280;30517;51.932;4.278;2022-07-05T09:14:27;102358.72;;;20.75;49.37
37298;BME280;30517;51.932;4.278;2022-07-05T09:17:09;102368.28;;;20.87;48.78
37298;BME280;30517;51.932;4.278;2022-07-05T09:20:10;102370.13;;;20.85;48.70
37298;BME280;30517;51.932;4.278;2022-07-05T09:22:57;102393.25;;;20.90;48.46
37298;BME280;30517;51.932;4.278;2022-07-05T09:25:37;102344.44;;;20.73;48.83
37298;BME280;30517;51.932;4.278;2022-07-05T09:28:18;102381.53;;;20.94;48.55
37298;BME280;30517;51.932;4.278;2022-07-05T09:30:59;102307.28;;;20.54;48.44
37298;BME280;30517;51.932;4.278;2022-07-05T09:33:48;102350.53;;;20.81;48.63
37298;BME280;30517;51.932;4.278;2022-07-05T09:37:02;102385.00;;;21.01;48.69
37298;BME280;30517;51.932;4.278;2022-07-05T09:39:43;102386.75;;;21.02;48.66
37298;BME280;30517;51.932;4.278;2022-07-05T09:42:23;102380.53;;;21.00;48.80
37298;BME280;30517;51.932;4.278;2022-07-05T09:45:05;102363.78;;;20.89;48.36
37298;BME280;30517;51.932;4.278;2022-07-05T09:47:46;102383.03;;;21.08;48.73
37298;BME280;30517;51.932;4.278;2022-07-05T09:50:37;102411.59;;;21.10;48.74
37298;BME280;30517;51.932;4.278;2022-07-05T09:53:18;102373.25;;;21.07;48.59
37298;BME280;30517;51.932;4.278;2022-07-05T09:56:03;102379.63;;;20.56;48.61
37298;BME280;30517;51.932;4.278;2022-07-05T09:58:45;102396.81;;;20.91;48.10
37298;BME280;30517;51.932;4.278;2022-07-05T10:01:30;102386.81;;;20.97;47.98
37298;BME280;30517;51.932;4.278;2022-07-05T10:04:12;102400.81;;;21.13;47.91
37298;BME280;30517;51.932;4.278;2022-07-05T10:06:53;102372.44;;;21.02;47.97
37298;BME280;30517;51.932;4.278;2022-07-05T10:09:34;102364.34;;;21.03;47.60
37298;BME280;30517;51.932;4.278;2022-07-05T10:12:15;102418.47;;;21.24;47.63
37298;BME280;30517;51.932;4.278;2022-07-05T10:14:59;102367.81;;;21.10;47.47
37298;BME280;30517;51.932;4.278;2022-07-05T10:17:43;102391.59;;;21.25;47.45
37298;BME280;30517;51.932;4.278;2022-07-05T10:23:18;102369.53;;;21.12;47.64
37298;BME280;30517;51.932;4.278;2022-07-05T10:26:00;102414.56;;;21.40;47.35
37298;BME280;30517;51.932;4.278;2022-07-05T10:28:45;102414.56;;;21.40;47.21
37298;BME280;30517;51.932;4.278;2022-07-05T10:31:28;102285.50;;;20.71;47.29
37298;BME280;30517;51.932;4.278;2022-07-05T10:34:10;102419.91;;;21.41;47.08
37298;BME280;30517;51.932;4.278;2022-07-05T10:36:51;102400.31;;;21.35;46.95
37298;BME280;30517;51.932;4.278;2022-07-05T10:39:32;102424.19;;;21.49;46.93
37298;BME280;30517;51.932;4.278;2022-07-05T10:42:14;102399.38;;;21.39;46.76
37298;BME280;30517;51.932;4.278;2022-07-05T10:44:55;102419.72;;;21.49;46.55
37298;BME280;30517;51.932;4.278;2022-07-05T10:47:36;102407.47;;;21.37;46.51
37298;BME280;30517;51.932;4.278;2022-07-05T10:50:17;102433.09;;;21.52;46.70
37298;BME280;30517;51.932;4.278;2022-07-05T10:53:02;102363.16;;;21.16;46.32
37298;BME280;30517;51.932;4.278;2022-07-05T10:58:48;102408.97;;;21.49;46.44
37298;BME280;30517;51.932;4.278;2022-07-05T11:01:35;102410.75;;;21.50;46.13
37298;BME280;30517;51.932;4.278;2022-07-05T11:04:24;102416.97;;;21.52;46.11
37298;BME280;30517;51.932;4.278;2022-07-05T11:07:07;102424.75;;;21.64;46.09
37298;BME280;30517;51.932;4.278;2022-07-05T11:09:59;102385.97;;;21.39;46.27
37298;BME280;30517;51.932;4.278;2022-07-05T11:12:40;102436.34;;;21.67;46.02
37298;BME280;30517;51.932;4.278;2022-07-05T11:15:21;102439.91;;;21.67;45.72
37298;BME280;30517;51.932;4.278;2022-07-05T11:18:14;102426.63;;;21.61;45.87
37298;BME280;30517;51.932;4.278;2022-07-05T11:21:16;102406.25;;;21.51;45.72
37298;BME280;30517;51.932;4.278;2022-07-05T11:27:01;102438.72;;;21.79;45.30
37298;BME280;30517;51.932;4.278;2022-07-05T11:29:49;102360.91;;;21.38;45.33
37298;BME280;30517;51.932;4.278;2022-07-05T11:56:51;102453.00;;;21.81;45.94
37298;BME280;30517;51.932;4.278;2022-07-05T13:16:17;102464.00;;;22.78;44.48
37298;BME280;30517;51.932;4.278;2022-07-05T13:52:29;102476.75;;;23.04;43.94
37298;BME280;30517;51.932;4.278;2022-07-05T14:32:10;102458.94;;;23.59;43.40
37298;BME280;30517;51.932;4.278;2022-07-05T14:35:57;102489.78;;;23.78;43.53
37298;BME280;30517;51.932;4.278;2022-07-05T14:47:43;102478.09;;;23.79;40.95
37298;BME280;30517;51.932;4.278;2022-07-05T15:07:35;102497.63;;;24.14;42.28
37298;BME280;30517;51.932;4.278;2022-07-05T15:36:50;102506.28;;;24.52;40.88
37298;BME280;30517;51.932;4.278;2022-07-05T16:15:58;102525.81;;;24.84;41.55
37298;BME280;30517;51.932;4.278;2022-07-05T16:19:45;102528.31;;;24.90;41.23
37298;BME280;30517;51.932;4.278;2022-07-05T16:23:21;102521.81;;;24.95;41.22
37298;BME280;30517;51.932;4.278;2022-07-05T16:37:14;102500.16;;;24.97;41.29
37298;BME280;30517;51.932;4.278;2022-07-05T16:40:59;102500.97;;;24.99;41.47
37298;BME280;30517;51.932;4.278;2022-07-05T16:52:18;102513.25;;;25.08;40.99
37298;BME280;30517;51.932;4.278;2022-07-05T17:53:57;102547.31;;;24.34;41.17
37298;BME280;30517;51.932;4.278;2022-07-05T18:35:54;102538.47;;;23.71;41.18
37298;BME280;30517;51.932;4.278;2022-07-05T18:57:19;102544.38;;;23.54;41.71
37298;BME280;30517;51.932;4.278;2022-07-05T19:05:20;102565.16;;;23.49;41.25
37298;BME280;30517;51.932;4.278;2022-07-05T19:52:33;102582.47;;;22.73;42.19
37298;BME280;30517;51.932;4.278;2022-07-05T20:17:09;102598.25;;;22.51;42.10
37298;BME280;30517;51.932;4.278;2022-07-05T20:24:50;102612.91;;;22.39;42.02
37298;BME280;30517;51.932;4.278;2022-07-05T21:02:12;102625.72;;;21.84;42.84
37298;BME280;30517;51.932;4.278;2022-07-05T21:08:19;102627.66;;;21.78;43.17
37298;BME280;30517;51.932;4.278;2022-07-05T21:12:18;102634.91;;;21.74;43.11
37298;BME280;30517;51.932;4.278;2022-07-05T21:34:59;102652.44;;;21.47;43.23
37298;BME280;30517;51.932;4.278;2022-07-05T23:28:50;102671.63;;;20.05;43.96
37298;BME280;30517;51.932;4.278;2022-07-05T23:48:10;102667.41;;;19.84;44.70
